sensor_id;sensor_type;location;lat;lon;timestamp;pressure;altitude;pressure_sealevel;temperature;humidity
59190;BME280;50749;51.636;4.948;2023-03-26T00:01:05;100765.78;;;18.30;59.68
59190;BME280;50749;51.636;4.948;2023-03-26T00:03:35;100760.59;;;18.28;59.41
59190;BME280;50749;51.636;4.948;2023-03-26T00:06:09;100759.00;;;18.27;59.77
59190;BME280;50749;51.636;4.948;2023-03-26T00:08:36;100768.47;;;18.26;59.71
59190;BME280;50749;51.636;4.948;2023-03-26T00:11:04;100763.31;;;18.25;59.48
59190;BME280;50749;51.636;4.948;2023-03-26T00:13:30;100760.09;;;18.23;59.35
59190;BME280;50749;51.636;4.948;2023-03-26T00:15:56;100752.16;;;18.21;59.77
59190;BME280;50749;51.636;4.948;2023-03-26T00:18:22;100756.09;;;18.20;59.48
59190;BME280;50749;51.636;4.948;2023-03-26T00:20:56;100750.91;;;18.18;59.69
59190;BME280;50749;51.636;4.948;2023-03-26T00:23:23;100755.66;;;18.18;59.46
59190;BME280;50749;51.636;4.948;2023-03-26T00:25:50;100752.44;;;18.16;59.65
59190;BME280;50749;51.636;4.948;2023-03-26T00:28:16;100753.59;;;18.15;59.57
59190;BME280;50749;51.636;4.948;2023-03-26T00:30:55;100734.59;;;18.13;59.58
59190;BME280;50749;51.636;4.948;2023-03-26T00:33:21;100744.06;;;18.12;60.02
59190;BME280;50749;51.636;4.948;2023-03-26T00:35:55;100740.47;;;18.12;59.68
59190;BME280;50749;51.636;4.948;2023-03-26T00:38:24;100746.38;;;18.10;59.33
59190;BME280;50749;51.636;4.948;2023-03-26T00:40:51;100734.53;;;18.10;59.77
59190;BME280;50749;51.636;4.948;2023-03-26T00:43:18;100730.97;;;18.09;60.01
59190;BME280;50749;51.636;4.948;2023-03-26T00:45:49;100725.00;;;18.07;59.81
59190;BME280;50749;51.636;4.948;2023-03-26T00:48:16;100739.63;;;18.08;59.70
59190;BME280;50749;51.636;4.948;2023-03-26T00:50:44;100734.44;;;18.06;59.62
59190;BME280;50749;51.636;4.948;2023-03-26T00:53:11;100728.47;;;18.04;59.47
59190;BME280;50749;51.636;4.948;2023-03-26T00:55:42;100731.25;;;18.04;59.73
59190;BME280;50749;51.636;4.948;2023-03-26T00:58:09;100719.72;;;18.02;59.74
59190;BME280;50749;51.636;4.948;2023-03-26T01:00:42;100719.72;;;18.02;59.91
59190;BME280;50749;51.636;4.948;2023-03-26T01:03:11;100707.06;;;18.01;59.67
59190;BME280;50749;51.636;4.948;2023-03-26T01:08:27;100698.34;;;17.99;59.78
59190;BME280;50749;51.636;4.948;2023-03-26T01:10:57;100702.25;;;17.98;59.92
59190;BME280;50749;51.636;4.948;2023-03-26T01:13:35;100695.47;;;17.95;60.02
59190;BME280;50749;51.636;4.948;2023-03-26T01:16:04;100696.66;;;17.94;59.60
59190;BME280;50749;51.636;4.948;2023-03-26T01:18:32;100690.31;;;17.94;59.70
59190;BME280;50749;51.636;4.948;2023-03-26T01:21:07;100687.91;;;17.92;59.50
59190;BME280;50749;51.636;4.948;2023-03-26T01:23:46;100686.31;;;17.91;59.26
59190;BME280;50749;51.636;4.948;2023-03-26T01:26:25;100676.38;;;17.90;59.20
59190;BME280;50749;51.636;4.948;2023-03-26T01:28:58;100676.38;;;17.90;59.43
59190;BME280;50749;51.636;4.948;2023-03-26T01:34:23;100669.63;;;17.88;59.52
59190;BME280;50749;51.636;4.948;2023-03-26T01:37:10;100661.66;;;17.86;59.71
59190;BME280;50749;51.636;4.948;2023-03-26T01:39:45;100653.72;;;17.85;59.89
59190;BME280;50749;51.636;4.948;2023-03-26T01:45:08;100652.13;;;17.83;59.40
59190;BME280;50749;51.636;4.948;2023-03-26T01:47:36;100648.91;;;17.81;59.76
59190;BME280;50749;51.636;4.948;2023-03-26T01:50:02;100648.91;;;17.81;59.17
59190;BME280;50749;51.636;4.948;2023-03-26T01:52:29;100640.63;;;17.81;59.16
59190;BME280;50749;51.636;4.948;2023-03-26T01:54:56;100638.22;;;17.80;59.37
59190;BME280;50749;51.636;4.948;2023-03-26T01:57:46;100638.22;;;17.80;59.41
59190;BME280;50749;51.636;4.948;2023-03-26T02:06:02;100614.06;;;17.77;59.48
59190;BME280;50749;51.636;4.948;2023-03-26T02:08:39;100606.16;;;17.75;59.53
59190;BME280;50749;51.636;4.948;2023-03-26T02:11:11;100607.31;;;17.74;59.49
59190;BME280;50749;51.636;4.948;2023-03-26T02:13:40;100604.53;;;17.74;59.14
59190;BME280;50749;51.636;4.948;2023-03-26T02:16:09;100597.41;;;17.73;59.12
59190;BME280;50749;51.636;4.948;2023-03-26T02:18:37;100597.41;;;17.73;59.30
59190;BME280;50749;51.636;4.948;2023-03-26T02:21:07;100596.97;;;17.71;59.57
59190;BME280;50749;51.636;4.948;2023-03-26T02:23:35;100595.81;;;17.72;59.03
59190;BME280;50749;51.636;4.948;2023-03-26T02:26:10;100599.72;;;17.71;59.27
59190;BME280;50749;51.636;4.948;2023-03-26T02:28:36;100598.16;;;17.70;59.60
59190;BME280;50749;51.636;4.948;2023-03-26T02:31:02;100599.28;;;17.69;59.50
59190;BME280;50749;51.636;4.948;2023-03-26T02:33:29;100601.28;;;17.69;59.43
59190;BME280;50749;51.636;4.948;2023-03-26T02:35:56;100594.13;;;17.68;58.99
59190;BME280;50749;51.636;4.948;2023-03-26T02:38:32;100575.94;;;17.67;59.38
59190;BME280;50749;51.636;4.948;2023-03-26T02:41:02;100581.44;;;17.67;59.38
59190;BME280;50749;51.636;4.948;2023-03-26T02:43:29;100577.09;;;17.66;59.27
59190;BME280;50749;51.636;4.948;2023-03-26T02:45:55;100574.34;;;17.66;59.16
59190;BME280;50749;51.636;4.948;2023-03-26T02:48:21;100566.03;;;17.66;59.13
59190;BME280;50749;51.636;4.948;2023-03-26T02:50:47;100562.47;;;17.65;59.18
59190;BME280;50749;51.636;4.948;2023-03-26T02:53:15;100554.91;;;17.62;58.90
59190;BME280;50749;51.636;4.948;2023-03-26T02:55:41;100552.94;;;17.62;59.14
59190;BME280;50749;51.636;4.948;2023-03-26T02:58:07;100546.63;;;17.62;58.70
59190;BME280;50749;51.636;4.948;2023-03-26T03:00:34;100545.00;;;17.61;59.01
59190;BME280;50749;51.636;4.948;2023-03-26T03:03:00;100538.69;;;17.60;58.92
59190;BME280;50749;51.636;4.948;2023-03-26T03:05:29;100528.44;;;17.61;58.95
59190;BME280;50749;51.636;4.948;2023-03-26T03:07:57;100531.56;;;17.59;58.86
59190;BME280;50749;51.636;4.948;2023-03-26T03:10:25;100526.03;;;17.59;58.71
59190;BME280;50749;51.636;4.948;2023-03-26T03:12:53;100520.50;;;17.59;58.87
59190;BME280;50749;51.636;4.948;2023-03-26T03:15:19;100515.34;;;17.58;58.78
59190;BME280;50749;51.636;4.948;2023-03-26T03:17:45;100519.72;;;17.59;58.72
59190;BME280;50749;51.636;4.948;2023-03-26T03:20:11;100514.53;;;17.57;58.93
59190;BME280;50749;51.636;4.948;2023-03-26T03:22:38;100511.78;;;17.57;59.01
59190;BME280;50749;51.636;4.948;2023-03-26T03:25:04;100521.22;;;17.56;58.82
59190;BME280;50749;51.636;4.948;2023-03-26T03:27:34;100503.84;;;17.56;59.02
59190;BME280;50749;51.636;4.948;2023-03-26T03:30:04;100506.59;;;17.56;58.74
59190;BME280;50749;51.636;4.948;2023-03-26T03:32:30;100495.13;;;17.54;58.52
59190;BME280;50749;51.636;4.948;2023-03-26T03:34:56;100500.66;;;17.54;58.97
59190;BME280;50749;51.636;4.948;2023-03-26T03:37:24;100488.78;;;17.53;58.60
59190;BME280;50749;51.636;4.948;2023-03-26T03:39:50;100499.03;;;17.53;58.87
59190;BME280;50749;51.636;4.948;2023-03-26T03:42:16;100498.25;;;17.52;58.95
59190;BME280;50749;51.636;4.948;2023-03-26T03:44:42;100487.97;;;17.53;58.95
59190;BME280;50749;51.636;4.948;2023-03-26T03:47:08;100486.41;;;17.52;58.69
59190;BME280;50749;51.636;4.948;2023-03-26T03:49:38;100482.03;;;17.51;58.79
59190;BME280;50749;51.636;4.948;2023-03-26T03:52:05;100475.72;;;17.50;59.00
59190;BME280;50749;51.636;4.948;2023-03-26T03:54:31;100469.34;;;17.50;58.62
59190;BME280;50749;51.636;4.948;2023-03-26T03:56:57;100463.84;;;17.50;58.45
59190;BME280;50749;51.636;4.948;2023-03-26T03:59:23;100454.75;;;17.49;58.80
59190;BME280;50749;51.636;4.948;2023-03-26T04:01:49;100453.13;;;17.48;58.52
59190;BME280;50749;51.636;4.948;2023-03-26T04:04:16;100442.91;;;17.49;58.69
59190;BME280;50749;51.636;4.948;2023-03-26T04:06:42;100455.91;;;17.48;58.42
59190;BME280;50749;51.636;4.948;2023-03-26T04:09:08;100440.50;;;17.47;58.57
59190;BME280;50749;51.636;4.948;2023-03-26T04:11:35;100439.31;;;17.48;58.58
59190;BME280;50749;51.636;4.948;2023-03-26T04:14:01;100429.44;;;17.47;58.74
59190;BME280;50749;51.636;4.948;2023-03-26T04:16:27;100427.06;;;17.45;58.25
59190;BME280;50749;51.636;4.948;2023-03-26T04:18:53;100425.44;;;17.44;58.29
59190;BME280;50749;51.636;4.948;2023-03-26T04:21:19;100414.38;;;17.44;58.61
59190;BME280;50749;51.636;4.948;2023-03-26T04:23:45;100412.81;;;17.43;58.35
59190;BME280;50749;51.636;4.948;2023-03-26T04:26:14;100415.19;;;17.45;58.73
59190;BME280;50749;51.636;4.948;2023-03-26T04:28:48;100405.66;;;17.42;58.29
59190;BME280;50749;51.636;4.948;2023-03-26T04:31:20;100409.22;;;17.43;58.39
59190;BME280;50749;51.636;4.948;2023-03-26T04:33:54;100404.88;;;17.42;58.58
59190;BME280;50749;51.636;4.948;2023-03-26T04:36:28;100402.91;;;17.42;58.41
59190;BME280;50749;51.636;4.948;2023-03-26T04:38:57;100401.28;;;17.41;58.22
59190;BME280;50749;51.636;4.948;2023-03-26T04:41:27;100397.75;;;17.41;58.57
59190;BME280;50749;51.636;4.948;2023-03-26T04:43:53;100395.75;;;17.41;58.32
59190;BME280;50749;51.636;4.948;2023-03-26T04:46:20;100385.91;;;17.40;58.58
59190;BME280;50749;51.636;4.948;2023-03-26T04:48:50;100385.91;;;17.40;58.34
59190;BME280;50749;51.636;4.948;2023-03-26T04:51:18;100376.00;;;17.39;58.39
59190;BME280;50749;51.636;4.948;2023-03-26T04:53:56;100376.00;;;17.39;58.45
59190;BME280;50749;51.636;4.948;2023-03-26T04:56:58;100362.53;;;17.38;58.34
59190;BME280;50749;51.636;4.948;2023-03-26T04:59:28;100353.47;;;17.37;58.13
59190;BME280;50749;51.636;4.948;2023-03-26T05:01:57;100355.06;;;17.38;58.33
59190;BME280;50749;51.636;4.948;2023-03-26T05:04:24;100340.81;;;17.36;58.12
59190;BME280;50749;51.636;4.948;2023-03-26T05:06:52;100347.16;;;17.37;58.28
59190;BME280;50749;51.636;4.948;2023-03-26T05:09:18;100342.41;;;17.37;58.29
59190;BME280;50749;51.636;4.948;2023-03-26T05:11:44;100340.00;;;17.36;57.94
59190;BME280;50749;51.636;4.948;2023-03-26T05:14:10;100329.31;;;17.34;57.95
59190;BME280;50749;51.636;4.948;2023-03-26T05:16:36;100328.97;;;17.36;57.93
59190;BME280;50749;51.636;4.948;2023-03-26T05:19:04;100332.09;;;17.34;58.42
59190;BME280;50749;51.636;4.948;2023-03-26T05:21:30;100331.31;;;17.34;58.32
59190;BME280;50749;51.636;4.948;2023-03-26T05:23:55;100323.00;;;17.34;58.07
59190;BME280;50749;51.636;4.948;2023-03-26T05:26:21;100318.28;;;17.34;58.40
59190;BME280;50749;51.636;4.948;2023-03-26T05:28:47;100321.03;;;17.34;58.27
59190;BME280;50749;51.636;4.948;2023-03-26T05:31:13;100313.19;;;17.36;58.11
59190;BME280;50749;51.636;4.948;2023-03-26T05:33:41;100306.91;;;17.39;58.29
59190;BME280;50749;51.636;4.948;2023-03-26T05:36:10;100306.19;;;17.42;58.16
59190;BME280;50749;51.636;4.948;2023-03-26T05:38:40;100305.88;;;17.48;57.70
59190;BME280;50749;51.636;4.948;2023-03-26T05:41:08;100293.72;;;17.52;57.47
59190;BME280;50749;51.636;4.948;2023-03-26T05:43:34;100292.63;;;17.57;57.21
59190;BME280;50749;51.636;4.948;2023-03-26T05:46:02;100289.94;;;17.60;57.25
59190;BME280;50749;51.636;4.948;2023-03-26T05:48:28;100291.56;;;17.65;57.00
59190;BME280;50749;51.636;4.948;2023-03-26T05:50:56;100289.69;;;17.69;56.85
59190;BME280;50749;51.636;4.948;2023-03-26T05:53:24;100283.41;;;17.72;57.07
59190;BME280;50749;51.636;4.948;2023-03-26T05:55:51;100290.97;;;17.75;56.91
59190;BME280;50749;51.636;4.948;2023-03-26T05:58:24;100290.22;;;17.78;56.80
59190;BME280;50749;51.636;4.948;2023-03-26T06:01:03;100287.88;;;17.80;57.74
59190;BME280;50749;51.636;4.948;2023-03-26T06:03:31;100289.53;;;17.85;57.03
59190;BME280;50749;51.636;4.948;2023-03-26T06:05:57;100287.66;;;17.89;57.04
59190;BME280;50749;51.636;4.948;2023-03-26T06:08:23;100282.19;;;17.93;56.98
59190;BME280;50749;51.636;4.948;2023-03-26T06:10:49;100282.59;;;17.95;56.89
59190;BME280;50749;51.636;4.948;2023-03-26T06:13:16;100283.47;;;17.99;57.69
59190;BME280;50749;51.636;4.948;2023-03-26T06:15:42;100279.94;;;18.02;58.54
59190;BME280;50749;51.636;4.948;2023-03-26T06:18:08;100276.44;;;18.05;57.65
59190;BME280;50749;51.636;4.948;2023-03-26T06:20:34;100280.44;;;18.08;58.37
59190;BME280;50749;51.636;4.948;2023-03-26T06:23:00;100284.03;;;18.12;58.77
59190;BME280;50749;51.636;4.948;2023-03-26T06:25:26;100276.59;;;18.16;57.76
59190;BME280;50749;51.636;4.948;2023-03-26T06:27:51;100264.81;;;18.19;58.12
59190;BME280;50749;51.636;4.948;2023-03-26T06:30:17;100271.97;;;18.24;58.41
59190;BME280;50749;51.636;4.948;2023-03-26T06:32:44;100262.53;;;18.28;59.02
59190;BME280;50749;51.636;4.948;2023-03-26T06:35:10;100262.22;;;18.33;58.63
59190;BME280;50749;51.636;4.948;2023-03-26T06:37:36;100257.09;;;18.35;58.21
59190;BME280;50749;51.636;4.948;2023-03-26T06:40:04;100258.31;;;18.38;57.88
59190;BME280;50749;51.636;4.948;2023-03-26T06:42:30;100256.75;;;18.41;57.68
59190;BME280;50749;51.636;4.948;2023-03-26T06:44:55;100259.59;;;18.44;57.77
59190;BME280;50749;51.636;4.948;2023-03-26T06:47:21;100250.53;;;18.47;57.93
59190;BME280;50749;51.636;4.948;2023-03-26T06:49:47;100250.16;;;18.49;57.92
59190;BME280;50749;51.636;4.948;2023-03-26T06:52:13;100250.19;;;18.52;58.06
59190;BME280;50749;51.636;4.948;2023-03-26T06:54:39;100253.41;;;18.54;57.70
59190;BME280;50749;51.636;4.948;2023-03-26T06:57:04;100252.22;;;18.55;57.26
59190;BME280;50749;51.636;4.948;2023-03-26T06:59:31;100254.59;;;18.57;57.91
59190;BME280;50749;51.636;4.948;2023-03-26T07:01:56;100254.22;;;18.59;57.44
59190;BME280;50749;51.636;4.948;2023-03-26T07:04:22;100251.88;;;18.61;57.70
59190;BME280;50749;51.636;4.948;2023-03-26T07:06:48;100255.09;;;18.63;57.91
59190;BME280;50749;51.636;4.948;2023-03-26T07:09:14;100246.00;;;18.66;58.00
59190;BME280;50749;51.636;4.948;2023-03-26T07:11:40;100252.00;;;18.68;57.44
59190;BME280;50749;51.636;4.948;2023-03-26T07:14:06;100252.78;;;18.68;57.24
59190;BME280;50749;51.636;4.948;2023-03-26T07:16:31;100248.84;;;18.69;57.28
59190;BME280;50749;51.636;4.948;2023-03-26T07:18:57;100244.91;;;18.74;58.30
59190;BME280;50749;51.636;4.948;2023-03-26T07:21:23;100239.41;;;18.78;57.68
59190;BME280;50749;51.636;4.948;2023-03-26T07:23:50;100237.94;;;18.84;57.92
59190;BME280;50749;51.636;4.948;2023-03-26T07:26:33;100233.63;;;18.86;57.46
59190;BME280;50749;51.636;4.948;2023-03-26T07:29:24;100241.97;;;18.90;57.76
59190;BME280;50749;51.636;4.948;2023-03-26T07:32:03;100239.63;;;18.92;57.30
59190;BME280;50749;51.636;4.948;2023-03-26T07:37:42;100241.25;;;18.97;56.88
59190;BME280;50749;51.636;4.948;2023-03-26T07:43:02;100227.81;;;18.99;56.96
59190;BME280;50749;51.636;4.948;2023-03-26T07:45:38;100226.66;;;19.00;56.98
59190;BME280;50749;51.636;4.948;2023-03-26T07:48:20;100231.41;;;19.03;57.02
59190;BME280;50749;51.636;4.948;2023-03-26T07:50:50;100227.84;;;19.02;56.81
59190;BME280;50749;51.636;4.948;2023-03-26T07:53:16;100229.47;;;19.03;56.78
59190;BME280;50749;51.636;4.948;2023-03-26T08:01:40;100230.25;;;19.04;56.72
59190;BME280;50749;51.636;4.948;2023-03-26T08:06:44;100224.28;;;19.02;56.59
59190;BME280;50749;51.636;4.948;2023-03-26T08:14:48;100218.78;;;19.05;56.70
59190;BME280;50749;51.636;4.948;2023-03-26T08:17:55;100223.16;;;19.06;57.42
59190;BME280;50749;51.636;4.948;2023-03-26T08:20:44;100217.56;;;19.03;57.10
59190;BME280;50749;51.636;4.948;2023-03-26T08:23:14;100221.91;;;19.00;56.72
59190;BME280;50749;51.636;4.948;2023-03-26T08:31:40;100220.66;;;18.94;56.47
59190;BME280;50749;51.636;4.948;2023-03-26T08:34:10;100223.78;;;18.92;56.87
59190;BME280;50749;51.636;4.948;2023-03-26T08:36:36;100219.44;;;18.91;56.76
59190;BME280;50749;51.636;4.948;2023-03-26T08:39:03;100222.22;;;18.91;57.05
59190;BME280;50749;51.636;4.948;2023-03-26T08:50:42;100222.97;;;18.88;57.50
59190;BME280;50749;51.636;4.948;2023-03-26T09:04:36;100215.81;;;18.87;56.71
59190;BME280;50749;51.636;4.948;2023-03-26T09:30:11;100223.72;;;18.85;56.64
59190;BME280;50749;51.636;4.948;2023-03-26T09:51:49;100222.00;;;18.77;56.71
59190;BME280;50749;51.636;4.948;2023-03-26T10:14:07;100232.28;;;18.73;58.54
59190;BME280;50749;51.636;4.948;2023-03-26T10:24:21;100233.81;;;18.70;56.99
59190;BME280;50749;51.636;4.948;2023-03-26T10:27:14;100235.72;;;18.63;57.32
59190;BME280;50749;51.636;4.948;2023-03-26T10:33:00;100235.28;;;18.61;57.23
59190;BME280;50749;51.636;4.948;2023-03-26T10:36:08;100240.47;;;18.66;57.02
59190;BME280;50749;51.636;4.948;2023-03-26T10:38:53;100240.09;;;18.67;56.65
59190;BME280;50749;51.636;4.948;2023-03-26T10:51:55;100247.09;;;18.57;57.65
59190;BME280;50749;51.636;4.948;2023-03-26T10:56:56;100252.69;;;18.61;57.48
59190;BME280;50749;51.636;4.948;2023-03-26T10:59:24;100257.88;;;18.63;57.33
59190;BME280;50749;51.636;4.948;2023-03-26T11:07:45;100265.47;;;18.69;56.80
59190;BME280;50749;51.636;4.948;2023-03-26T11:10:24;100269.00;;;18.70;56.51
59190;BME280;50749;51.636;4.948;2023-03-26T11:13:06;100270.59;;;18.71;57.12
59190;BME280;50749;51.636;4.948;2023-03-26T11:15:40;100268.63;;;18.71;57.05
59190;BME280;50749;51.636;4.948;2023-03-26T11:18:21;100271.81;;;18.73;56.97
59190;BME280;50749;51.636;4.948;2023-03-26T11:21:10;100267.06;;;18.74;57.08
59190;BME280;50749;51.636;4.948;2023-03-26T11:34:37;100291.66;;;18.79;56.99
59190;BME280;50749;51.636;4.948;2023-03-26T11:37:05;100284.16;;;18.80;56.94
59190;BME280;50749;51.636;4.948;2023-03-26T11:39:44;100286.56;;;18.81;57.22
59190;BME280;50749;51.636;4.948;2023-03-26T11:42:14;100290.13;;;18.82;57.10
59190;BME280;50749;51.636;4.948;2023-03-26T11:47:49;100293.69;;;18.82;56.77
59190;BME280;50749;51.636;4.948;2023-03-26T11:50:22;100299.22;;;18.82;57.19
59190;BME280;50749;51.636;4.948;2023-03-26T11:52:49;100293.34;;;18.84;56.80
59190;BME280;50749;51.636;4.948;2023-03-26T11:55:15;100301.19;;;18.82;57.18
59190;BME280;50749;51.636;4.948;2023-03-26T11:57:51;100298.00;;;18.80;57.45
59190;BME280;50749;51.636;4.948;2023-03-26T12:00:20;100309.09;;;18.80;57.06
59190;BME280;50749;51.636;4.948;2023-03-26T12:02:48;100312.97;;;18.75;57.08
59190;BME280;50749;51.636;4.948;2023-03-26T12:05:17;100312.53;;;18.69;57.71
59190;BME280;50749;51.636;4.948;2023-03-26T12:10:35;100311.56;;;18.85;57.75
59190;BME280;50749;51.636;4.948;2023-03-26T12:15:43;100313.75;;;19.06;56.92
59190;BME280;50749;51.636;4.948;2023-03-26T12:18:23;100308.59;;;19.04;56.41
59190;BME280;50749;51.636;4.948;2023-03-26T12:21:11;100315.28;;;19.00;56.44
59190;BME280;50749;51.636;4.948;2023-03-26T12:26:36;100318.81;;;18.97;57.71
59190;BME280;50749;51.636;4.948;2023-03-26T12:29:09;100325.47;;;18.92;57.39
59190;BME280;50749;51.636;4.948;2023-03-26T12:34:16;100322.66;;;18.88;57.48
59190;BME280;50749;51.636;4.948;2023-03-26T12:36:54;100315.84;;;18.82;58.34
59190;BME280;50749;51.636;4.948;2023-03-26T12:39:35;100318.94;;;18.77;58.34
59190;BME280;50749;51.636;4.948;2023-03-26T12:42:05;100330.38;;;18.75;58.42
59190;BME280;50749;51.636;4.948;2023-03-26T12:44:45;100329.19;;;18.73;58.18
59190;BME280;50749;51.636;4.948;2023-03-26T12:47:20;100334.28;;;18.71;58.31
59190;BME280;50749;51.636;4.948;2023-03-26T12:49:48;100335.84;;;18.68;58.37
59190;BME280;50749;51.636;4.948;2023-03-26T12:55:12;100342.91;;;18.66;58.35
59190;BME280;50749;51.636;4.948;2023-03-26T12:58:01;100344.88;;;18.65;58.08
59190;BME280;50749;51.636;4.948;2023-03-26T13:06:40;100355.16;;;18.65;58.46
59190;BME280;50749;51.636;4.948;2023-03-26T13:09:35;100367.00;;;18.62;57.93
59190;BME280;50749;51.636;4.948;2023-03-26T13:12:18;100364.59;;;18.60;58.19
59190;BME280;50749;51.636;4.948;2023-03-26T13:17:49;100366.94;;;18.58;58.24
59190;BME280;50749;51.636;4.948;2023-03-26T13:20:38;100362.56;;;18.57;57.79
59190;BME280;50749;51.636;4.948;2023-03-26T13:28:58;100387.00;;;18.51;57.50
59190;BME280;50749;51.636;4.948;2023-03-26T13:40:21;100395.22;;;18.44;57.34
59190;BME280;50749;51.636;4.948;2023-03-26T13:47:49;100414.50;;;18.41;57.76
59190;BME280;50749;51.636;4.948;2023-03-26T13:50:21;100412.94;;;18.40;57.26
59190;BME280;50749;51.636;4.948;2023-03-26T13:53:13;100418.41;;;18.36;57.34
59190;BME280;50749;51.636;4.948;2023-03-26T13:55:47;100423.94;;;18.36;57.06
59190;BME280;50749;51.636;4.948;2023-03-26T13:58:25;100425.91;;;18.35;56.98
59190;BME280;50749;51.636;4.948;2023-03-26T14:03:56;100439.31;;;18.33;57.02
59190;BME280;50749;51.636;4.948;2023-03-26T14:09:04;100442.75;;;18.27;57.81
59190;BME280;50749;51.636;4.948;2023-03-26T14:17:05;100459.47;;;18.34;57.92
59190;BME280;50749;51.636;4.948;2023-03-26T14:37:19;100483.22;;;18.58;56.48
59190;BME280;50749;51.636;4.948;2023-03-26T14:40:00;100475.31;;;18.60;56.34
59190;BME280;50749;51.636;4.948;2023-03-26T14:42:37;100481.66;;;18.61;56.33
59190;BME280;50749;51.636;4.948;2023-03-26T14:45:44;100484.88;;;18.63;56.43
59190;BME280;50749;51.636;4.948;2023-03-26T14:54:08;100503.06;;;18.64;56.69
59190;BME280;50749;51.636;4.948;2023-03-26T14:56:40;100504.25;;;18.63;56.57
59190;BME280;50749;51.636;4.948;2023-03-26T15:10:48;100530.28;;;18.58;56.79
59190;BME280;50749;51.636;4.948;2023-03-26T15:16:15;100538.56;;;18.58;56.41
59190;BME280;50749;51.636;4.948;2023-03-26T15:24:06;100557.91;;;18.54;56.60
59190;BME280;50749;51.636;4.948;2023-03-26T15:29:41;100578.81;;;18.52;56.43
59190;BME280;50749;51.636;4.948;2023-03-26T15:32:28;100576.41;;;18.50;56.72
59190;BME280;50749;51.636;4.948;2023-03-26T15:40:49;100588.56;;;18.46;56.51
59190;BME280;50749;51.636;4.948;2023-03-26T15:43:21;100600.03;;;18.44;56.38
59190;BME280;50749;51.636;4.948;2023-03-26T15:49:04;100607.88;;;18.42;56.10
59190;BME280;50749;51.636;4.948;2023-03-26T15:55:01;100616.91;;;18.39;56.25
59190;BME280;50749;51.636;4.948;2023-03-26T15:57:31;100622.44;;;18.39;56.02
59190;BME280;50749;51.636;4.948;2023-03-26T16:11:04;100658.72;;;18.34;56.14
59190;BME280;50749;51.636;4.948;2023-03-26T16:13:53;100673.75;;;18.33;56.17
59190;BME280;50749;51.636;4.948;2023-03-26T16:22:04;100680.00;;;18.30;56.10
59190;BME280;50749;51.636;4.948;2023-03-26T16:24:34;100691.44;;;18.28;55.97
59190;BME280;50749;51.636;4.948;2023-03-26T16:27:25;100698.94;;;18.28;56.22
59190;BME280;50749;51.636;4.948;2023-03-26T16:32:44;100717.88;;;18.26;56.26
59190;BME280;50749;51.636;4.948;2023-03-26T16:37:43;100719.03;;;18.25;55.88
59190;BME280;50749;51.636;4.948;2023-03-26T16:54:03;100758.84;;;18.20;55.73
59190;BME280;50749;51.636;4.948;2023-03-26T16:59:10;100768.69;;;18.17;56.19
59190;BME280;50749;51.636;4.948;2023-03-26T17:01:56;100779.28;;;18.15;55.65
59190;BME280;50749;51.636;4.948;2023-03-26T17:04:28;100783.25;;;18.14;55.99
59190;BME280;50749;51.636;4.948;2023-03-26T17:09:50;100798.59;;;18.12;55.42
59190;BME280;50749;51.636;4.948;2023-03-26T17:12:46;100810.81;;;18.11;55.61
59190;BME280;50749;51.636;4.948;2023-03-26T17:20:42;100821.34;;;18.05;55.68
59190;BME280;50749;51.636;4.948;2023-03-26T17:23:38;100836.00;;;18.06;55.46
59190;BME280;50749;51.636;4.948;2023-03-26T17:42:27;100879.72;;;18.00;55.39
59190;BME280;50749;51.636;4.948;2023-03-26T17:47:29;100894.25;;;17.97;55.71
59190;BME280;50749;51.636;4.948;2023-03-26T17:50:24;100899.78;;;17.97;55.55
59190;BME280;50749;51.636;4.948;2023-03-26T17:53:19;100898.91;;;17.93;55.64
59190;BME280;50749;51.636;4.948;2023-03-26T17:55:49;100900.88;;;17.92;54.23
59190;BME280;50749;51.636;4.948;2023-03-26T17:58:28;100902.72;;;17.88;54.18
59190;BME280;50749;51.636;4.948;2023-03-26T18:03:46;100930.75;;;17.87;55.45
59190;BME280;50749;51.636;4.948;2023-03-26T18:06:44;100941.53;;;17.92;55.21
59190;BME280;50749;51.636;4.948;2023-03-26T18:14:53;100961.47;;;17.97;55.10
59190;BME280;50749;51.636;4.948;2023-03-26T18:17:23;100954.41;;;18.00;55.01
59190;BME280;50749;51.636;4.948;2023-03-26T18:19:54;100975.81;;;18.03;55.26
59190;BME280;50749;51.636;4.948;2023-03-26T18:22:28;100976.72;;;18.07;54.86
59190;BME280;50749;51.636;4.948;2023-03-26T18:24:59;100982.25;;;18.07;54.77
59190;BME280;50749;51.636;4.948;2023-03-26T18:27:32;100984.28;;;18.10;55.44
59190;BME280;50749;51.636;4.948;2023-03-26T18:30:08;100993.06;;;18.12;55.18
59190;BME280;50749;51.636;4.948;2023-03-26T18:32:48;100990.75;;;18.14;55.23
59190;BME280;50749;51.636;4.948;2023-03-26T18:35:19;101001.09;;;18.17;54.63
59190;BME280;50749;51.636;4.948;2023-03-26T18:37:47;101013.41;;;18.20;55.81
59190;BME280;50749;51.636;4.948;2023-03-26T18:40:19;101012.69;;;18.23;55.24
59190;BME280;50749;51.636;4.948;2023-03-26T18:42:52;101026.63;;;18.27;55.24
59190;BME280;50749;51.636;4.948;2023-03-26T18:47:53;101037.78;;;18.30;54.71
59190;BME280;50749;51.636;4.948;2023-03-26T18:50:28;101043.31;;;18.30;54.91
59190;BME280;50749;51.636;4.948;2023-03-26T18:52:57;101052.44;;;18.31;54.61
59190;BME280;50749;51.636;4.948;2023-03-26T18:55:28;101050.91;;;18.33;54.75
59190;BME280;50749;51.636;4.948;2023-03-26T18:57:55;101055.31;;;18.34;55.21
59190;BME280;50749;51.636;4.948;2023-03-26T19:00:23;101063.69;;;18.38;55.02
59190;BME280;50749;51.636;4.948;2023-03-26T19:02:58;101074.06;;;18.41;54.69
59190;BME280;50749;51.636;4.948;2023-03-26T19:05:26;101078.88;;;18.44;54.71
59190;BME280;50749;51.636;4.948;2023-03-26T19:07:54;101077.34;;;18.47;54.46